createdAt,value
2019-01-23T00:01:46.200Z,97.70
2019-01-23T00:04:16.735Z,97.60
2019-01-23T00:06:47.372Z,97.40
2019-01-23T00:09:17.959Z,97.50
2019-01-23T00:11:48.583Z,97.50
2019-01-23T00:14:19.094Z,97.40
2019-01-23T00:16:49.857Z,97.50
2019-01-23T00:19:20.420Z,97.80
2019-01-23T00:21:51.228Z,97.70
2019-01-23T00:24:21.904Z,97.80
2019-01-23T00:26:52.448Z,97.70
2019-01-23T00:29:22.982Z,97.80
2019-01-23T00:31:53.560Z,97.90
2019-01-23T00:34:24.034Z,97.90
2019-01-23T00:36:54.639Z,97.60
2019-01-23T00:39:25.149Z,97.70
2019-01-23T00:41:55.744Z,97.70
2019-01-23T00:44:26.284Z,97.60
2019-01-23T00:46:56.827Z,97.70
2019-01-23T00:49:27.335Z,97.70
2019-01-23T00:51:57.876Z,97.90
2019-01-23T00:54:28.710Z,98.20
2019-01-23T00:56:59.298Z,97.80
2019-01-23T00:59:30.233Z,97.80
2019-01-23T01:02:00.831Z,97.70
2019-01-23T01:04:31.347Z,98.10
2019-01-23T01:07:01.997Z,98.50
2019-01-23T01:09:32.724Z,98.30
2019-01-23T01:12:03.319Z,98.30
2019-01-23T01:14:33.983Z,98.40
2019-01-23T01:17:04.872Z,98.50
2019-01-23T01:19:35.425Z,98.70
2019-01-23T01:22:06.119Z,98.70
2019-01-23T01:24:36.727Z,99.00
2019-01-23T01:27:07.727Z,98.90
2019-01-23T01:29:38.322Z,98.80
2019-01-23T01:32:08.850Z,98.90
2019-01-23T01:34:39.392Z,98.80
2019-01-23T01:37:10.094Z,98.80
2019-01-23T01:39:40.687Z,98.80
2019-01-23T01:42:11.298Z,99.00
2019-01-23T01:44:41.950Z,98.90
2019-01-23T01:47:12.508Z,99.10
2019-01-23T01:49:43.115Z,99.10
2019-01-23T01:52:13.771Z,99.00
2019-01-23T01:54:44.338Z,99.10
2019-01-23T01:57:15.019Z,99.00
2019-01-23T01:59:45.598Z,98.80
2019-01-23T02:02:16.145Z,99.20
2019-01-23T02:04:47.108Z,99.00
2019-01-23T02:07:17.668Z,99.10
2019-01-23T02:09:48.350Z,99.00
2019-01-23T02:12:18.946Z,99.20
2019-01-23T02:14:49.483Z,98.70
2019-01-23T02:17:20.278Z,98.70
2019-01-23T02:19:51.039Z,98.70
2019-01-23T02:22:21.624Z,98.90
2019-01-23T02:24:52.220Z,98.90
2019-01-23T02:27:23.009Z,98.80
2019-01-23T02:29:53.618Z,98.60
2019-01-23T02:32:24.201Z,98.70
2019-01-23T02:34:54.612Z,98.50
2019-01-23T02:37:25.220Z,98.30
2019-01-23T02:39:55.774Z,98.40
2019-01-23T02:42:26.392Z,98.20
2019-01-23T02:44:57.010Z,98.20
2019-01-23T02:47:27.584Z,98.40
2019-01-23T02:49:58.163Z,98.30
2019-01-23T02:52:28.719Z,98.10
2019-01-23T02:54:59.247Z,98.00
2019-01-23T02:57:30.004Z,98.00
2019-01-23T03:00:00.543Z,98.00
2019-01-23T03:02:31.204Z,98.00
2019-01-23T03:05:01.752Z,98.00
2019-01-23T03:07:32.288Z,97.90
2019-01-23T03:10:03.258Z,97.90
2019-01-23T03:12:33.870Z,97.80
2019-01-23T03:15:05.762Z,97.80
2019-01-23T03:17:36.371Z,97.80
2019-01-23T03:20:09.306Z,97.70
2019-01-23T03:22:40.008Z,97.70
2019-01-23T03:25:12.272Z,97.70
2019-01-23T03:27:42.852Z,97.70
2019-01-23T03:30:20.252Z,97.70
2019-01-23T03:32:51.163Z,97.70
2019-01-23T03:35:22.023Z,97.80
2019-01-23T03:37:52.639Z,97.60
2019-01-23T03:40:24.219Z,97.90
2019-01-23T03:42:55.156Z,97.70
2019-01-23T03:45:28.676Z,97.70
2019-01-23T03:47:59.189Z,97.60
2019-01-23T03:50:29.712Z,97.60
2019-01-23T03:53:00.675Z,97.60
2019-01-23T03:55:31.514Z,97.60
2019-01-23T03:58:02.180Z,97.60
2019-01-23T04:00:32.756Z,97.60
2019-01-23T04:03:03.598Z,97.60
2019-01-23T04:05:34.378Z,97.60
2019-01-23T04:08:05.100Z,97.50
2019-01-23T04:10:35.848Z,97.50
2019-01-23T04:13:08.281Z,97.60
2019-01-23T04:15:39.112Z,97.60
2019-01-23T04:18:09.853Z,97.60
2019-01-23T04:20:40.646Z,97.60
2019-01-23T04:23:11.499Z,97.80
2019-01-23T04:25:45.793Z,97.90
2019-01-23T04:28:16.360Z,98.00
2019-01-23T04:30:47.173Z,97.90
2019-01-23T04:33:17.788Z,98.10
2019-01-23T04:35:48.512Z,98.30
2019-01-23T04:38:19.319Z,98.20
2019-01-23T04:40:50.339Z,98.30
2019-01-23T04:43:21.019Z,98.30
2019-01-23T04:45:51.688Z,98.40
2019-01-23T04:48:22.275Z,98.40
2019-01-23T04:51:10.937Z,98.70
2019-01-23T04:53:43.515Z,98.80
2019-01-23T04:56:14.457Z,98.90
2019-01-23T04:58:45.568Z,98.80
2019-01-23T05:01:16.051Z,98.70
2019-01-23T05:03:47.134Z,98.70
2019-01-23T05:06:18.129Z,98.70
2019-01-23T05:08:48.721Z,98.50
2019-01-23T05:11:21.321Z,98.70
2019-01-23T05:13:51.919Z,98.60
2019-01-23T05:16:22.414Z,98.70
2019-01-23T05:18:52.924Z,98.50
2019-01-23T05:21:23.613Z,98.50
2019-01-23T05:23:54.112Z,98.40
2019-01-23T05:26:28.091Z,98.40
2019-01-23T05:28:58.588Z,98.30
2019-01-23T05:31:29.218Z,98.30
2019-01-23T05:33:59.785Z,98.10
2019-01-23T05:36:30.316Z,98.20
2019-01-23T05:39:00.861Z,98.00
2019-01-23T05:41:31.658Z,98.10
2019-01-23T05:44:02.432Z,98.20
2019-01-23T05:46:33.374Z,98.10
2019-01-23T05:49:04.372Z,98.10
2019-01-23T05:51:35.217Z,98.10
2019-01-23T05:54:06.210Z,98.10
2019-01-23T05:56:36.991Z,98.10
2019-01-23T05:59:07.939Z,98.00
2019-01-23T06:01:38.856Z,97.90
2019-01-23T06:04:21.193Z,97.80
2019-01-23T06:06:53.696Z,97.90
2019-01-23T06:09:26.954Z,97.90
2019-01-23T06:11:57.991Z,97.90
2019-01-23T06:14:28.993Z,97.90
2019-01-23T06:17:02.008Z,97.80
2019-01-23T06:19:34.953Z,97.80
2019-01-23T06:22:06.564Z,97.80
2019-01-23T06:24:42.541Z,97.80
2019-01-23T06:27:20.687Z,97.60
2019-01-23T06:29:54.834Z,97.60
2019-01-23T06:32:29.859Z,97.80
2019-01-23T06:35:05.238Z,97.60
2019-01-23T06:37:36.414Z,97.60
2019-01-23T06:40:10.868Z,97.30
2019-01-23T06:42:43.876Z,97.30
2019-01-23T06:45:18.512Z,97.20
2019-01-23T06:47:55.309Z,97.20
2019-01-23T06:50:31.664Z,97.30
2019-01-23T06:53:05.305Z,97.10
2019-01-23T06:55:41.083Z,97.10
2019-01-23T06:58:14.590Z,97.10
2019-01-23T07:00:47.122Z,97.10
2019-01-23T07:03:18.438Z,97.10
2019-01-23T07:05:52.344Z,97.10
2019-01-23T07:08:27.783Z,97.10
2019-01-23T07:11:10.175Z,96.90
2019-01-23T07:13:49.377Z,96.80
2019-01-23T07:16:31.441Z,96.70
2019-01-23T07:19:06.993Z,96.60
2019-01-23T07:21:51.689Z,96.50
2019-01-23T07:24:30.628Z,96.60
2019-01-23T07:27:03.495Z,96.80
2019-01-23T07:29:41.542Z,96.60
2019-01-23T07:32:20.217Z,96.70
2019-01-23T07:34:56.955Z,96.80
2019-01-23T07:37:31.465Z,96.60
2019-01-23T07:40:13.386Z,96.50
2019-01-23T07:42:48.733Z,96.60
2019-01-23T07:45:25.715Z,96.70
2019-01-23T07:47:59.375Z,96.60
2019-01-23T07:50:38.593Z,96.50
2019-01-23T07:53:08.813Z,96.30
2019-01-23T07:55:39.230Z,96.30
2019-01-23T07:58:09.686Z,96.30
2019-01-23T08:00:40.109Z,96.40
2019-01-23T08:03:10.556Z,96.50
2019-01-23T08:05:40.981Z,96.30
2019-01-23T08:08:11.456Z,96.30
2019-01-23T08:10:41.942Z,96.40
2019-01-23T08:13:12.444Z,96.40
2019-01-23T08:15:42.943Z,96.40
2019-01-23T08:18:13.396Z,96.30
2019-01-23T08:20:43.819Z,96.40
2019-01-23T08:23:14.291Z,96.30
2019-01-23T08:25:44.830Z,96.30
2019-01-23T08:28:15.255Z,96.30
2019-01-23T08:30:45.723Z,96.40
2019-01-23T08:33:16.290Z,96.30
2019-01-23T08:35:46.755Z,96.20
2019-01-23T08:38:17.226Z,96.00
2019-01-23T08:40:47.727Z,95.90
2019-01-23T08:43:18.180Z,95.90
2019-01-23T08:45:48.624Z,96.40
2019-01-23T08:48:19.102Z,96.10
2019-01-23T08:50:49.597Z,95.90
2019-01-23T08:53:20.087Z,95.90
2019-01-23T08:55:53.804Z,95.90
2019-01-23T08:58:22.826Z,96.10
2019-01-23T09:00:53.377Z,96.10
2019-01-23T09:03:23.788Z,96.20
2019-01-23T09:05:54.282Z,96.00
2019-01-23T09:08:24.751Z,95.90
2019-01-23T09:10:55.232Z,95.90
2019-01-23T09:13:25.724Z,96.00
2019-01-23T09:15:56.190Z,96.10
2019-01-23T09:18:26.657Z,95.90
2019-01-23T09:20:57.204Z,95.80
2019-01-23T09:23:27.620Z,95.90
2019-01-23T09:25:58.112Z,95.90
2019-01-23T09:28:28.556Z,95.70
2019-01-23T09:31:36.755Z,95.50
2019-01-23T09:34:38.569Z,95.60
2019-01-23T09:37:34.892Z,95.60
2019-01-23T09:40:53.229Z,95.60
2019-01-23T09:43:54.244Z,95.70
2019-01-23T09:46:57.003Z,95.60
2019-01-23T09:50:19.814Z,95.60
2019-01-23T09:53:37.683Z,95.60
2019-01-23T09:56:08.168Z,95.70
2019-01-23T09:58:38.622Z,95.40
2019-01-23T10:01:09.190Z,95.40
2019-01-23T10:03:39.718Z,95.40
2019-01-23T10:06:10.217Z,95.40
2019-01-23T10:08:40.712Z,95.50
2019-01-23T10:11:11.201Z,95.40
2019-01-23T10:13:41.661Z,95.30
2019-01-23T10:16:20.215Z,95.20
2019-01-23T10:18:56.025Z,95.20
2019-01-23T10:21:22.923Z,95.20
2019-01-23T10:23:53.355Z,95.20
2019-01-23T10:26:23.874Z,95.00
2019-01-23T10:28:54.319Z,95.00
2019-01-23T10:31:24.780Z,95.00
2019-01-23T10:33:55.327Z,95.00
2019-01-23T10:36:25.864Z,94.70
2019-01-23T10:38:56.321Z,94.70
2019-01-23T10:41:26.818Z,94.80
2019-01-23T10:43:57.298Z,94.80
2019-01-23T10:46:28.058Z,94.80
2019-01-23T10:48:58.867Z,94.80
2019-01-23T10:51:29.796Z,94.70
2019-01-23T10:54:00.607Z,94.80
2019-01-23T10:56:31.391Z,94.80
2019-01-23T10:59:02.145Z,94.80
2019-01-23T11:01:33.082Z,94.70
2019-01-23T11:04:04.009Z,94.60
2019-01-23T11:06:34.972Z,94.60
2019-01-23T11:09:09.750Z,94.50
2019-01-23T11:11:40.520Z,94.50
2019-01-23T11:14:11.621Z,94.50
2019-01-23T11:16:42.516Z,94.60
2019-01-23T11:19:13.346Z,94.50
2019-01-23T11:21:44.271Z,94.40
2019-01-23T11:24:14.987Z,94.00
2019-01-23T11:26:45.567Z,94.20
2019-01-23T11:29:16.183Z,93.80
2019-01-23T11:31:47.251Z,93.60
2019-01-23T11:34:17.807Z,93.60
2019-01-23T11:36:48.895Z,93.60
2019-01-23T11:39:20.027Z,93.40
2019-01-23T11:41:53.888Z,93.20
2019-01-23T11:44:36.994Z,92.90
2019-01-23T11:47:10.146Z,92.80
2019-01-23T11:49:41.550Z,93.00
2019-01-23T11:52:17.945Z,93.20
2019-01-23T11:54:48.529Z,92.50
2019-01-23T11:57:21.515Z,91.80
2019-01-23T11:59:58.746Z,91.70
2019-01-23T12:02:36.294Z,91.70
2019-01-23T12:05:09.168Z,91.60
2019-01-23T12:07:49.543Z,91.60
2019-01-23T12:10:32.856Z,91.30
2019-01-23T12:13:16.826Z,91.20
2019-01-23T12:15:54.757Z,91.10
2019-01-23T12:18:37.521Z,91.10
2019-01-23T12:21:29.168Z,90.80
2019-01-23T12:24:08.828Z,90.40
2019-01-23T12:26:59.250Z,90.50
2019-01-23T12:29:54.601Z,90.20
2019-01-23T12:32:41.434Z,90.30
2019-01-23T12:35:28.995Z,90.30
2019-01-23T12:38:14.216Z,90.00
2019-01-23T12:40:49.351Z,90.00
2019-01-23T12:43:22.574Z,88.70
2019-01-23T12:45:56.858Z,90.20
2019-01-23T12:48:37.207Z,88.50
2019-01-23T12:51:23.186Z,88.90
2019-01-23T12:53:57.232Z,88.60
2019-01-23T12:56:38.470Z,86.70
2019-01-23T12:59:12.563Z,87.10
2019-01-23T13:01:47.894Z,86.80
2019-01-23T13:04:18.697Z,86.10
2019-01-23T13:06:52.821Z,87.80
2019-01-23T13:09:24.028Z,87.90
2019-01-23T13:11:55.244Z,87.90
2019-01-23T13:14:29.762Z,88.10
2019-01-23T13:17:01.069Z,88.20
2019-01-23T13:19:32.394Z,88.20
2019-01-23T13:22:06.604Z,87.60
2019-01-23T13:24:37.432Z,88.30
2019-01-23T13:27:16.308Z,86.30
2019-01-23T13:29:47.508Z,86.00
2019-01-23T13:32:18.660Z,86.00
2019-01-23T13:34:58.265Z,86.10
2019-01-23T13:37:31.153Z,86.00
2019-01-23T13:40:09.765Z,86.70
2019-01-23T13:42:40.689Z,86.50
2019-01-23T13:45:12.454Z,87.60
2019-01-23T13:47:45.405Z,87.60
2019-01-23T13:50:16.895Z,87.80
2019-01-23T13:52:50.933Z,87.30
2019-01-23T13:55:26.064Z,88.30
2019-01-23T13:57:59.898Z,87.10
2019-01-23T14:00:38.094Z,87.00
2019-01-23T14:03:09.768Z,87.70
2019-01-23T14:05:40.610Z,87.90
2019-01-23T14:08:12.348Z,87.40
2019-01-23T14:10:43.180Z,87.90
2019-01-23T14:13:14.053Z,87.90
2019-01-23T14:15:45.175Z,88.20
2019-01-23T14:18:16.177Z,88.30
2019-01-23T14:20:47.013Z,88.20
2019-01-23T14:23:17.900Z,88.10
2019-01-23T14:25:48.684Z,88.70
2019-01-23T14:28:19.621Z,89.30
2019-01-23T14:30:50.453Z,89.20
2019-01-23T14:33:21.359Z,88.40
2019-01-23T14:35:52.211Z,88.40
2019-01-23T14:38:23.176Z,87.90
2019-01-23T14:40:54.176Z,88.00
2019-01-23T14:43:25.133Z,87.70
2019-01-23T14:45:55.914Z,88.80
2019-01-23T14:48:26.685Z,87.90
2019-01-23T14:50:57.572Z,87.60
2019-01-23T14:53:28.391Z,87.90
2019-01-23T14:55:59.220Z,87.80
2019-01-23T14:58:29.997Z,87.00
2019-01-23T15:01:00.872Z,87.50
2019-01-23T15:03:32.067Z,87.70
2019-01-23T15:06:03.019Z,88.50
2019-01-23T15:08:33.841Z,89.20
2019-01-23T15:11:04.654Z,89.70
2019-01-23T15:13:35.266Z,89.60
2019-01-23T15:16:06.037Z,88.80
2019-01-23T15:18:39.829Z,88.80
2019-01-23T15:21:10.765Z,89.30
2019-01-23T15:23:41.469Z,89.70
2019-01-23T15:26:12.106Z,89.60
2019-01-23T15:28:42.698Z,89.70
2019-01-23T15:31:13.466Z,89.80
2019-01-23T15:33:44.206Z,88.60
2019-01-23T15:36:14.976Z,87.90
2019-01-23T15:38:45.727Z,88.10
2019-01-23T15:41:16.405Z,88.20
2019-01-23T15:43:47.020Z,88.30
2019-01-23T15:46:17.779Z,88.90
2019-01-23T15:48:48.247Z,88.60
2019-01-23T15:51:18.901Z,89.00
2019-01-23T15:53:49.802Z,89.30
2019-01-23T15:56:20.497Z,89.20
2019-01-23T15:58:51.037Z,89.10
2019-01-23T16:01:21.780Z,88.70
2019-01-23T16:03:52.452Z,88.80
2019-01-23T16:06:23.086Z,88.80
2019-01-23T16:08:53.770Z,88.90
2019-01-23T16:11:24.385Z,89.10
2019-01-23T16:13:55.069Z,88.60
2019-01-23T16:16:25.772Z,89.00
2019-01-23T16:18:56.555Z,88.30
2019-01-23T16:21:27.385Z,88.30
2019-01-23T16:23:58.009Z,88.50
2019-01-23T16:26:28.562Z,88.60
2019-01-23T16:28:59.181Z,88.10
2019-01-23T16:31:30.770Z,88.10
2019-01-23T16:34:21.631Z,88.40
2019-01-23T16:36:58.104Z,88.20
2019-01-23T16:39:36.039Z,88.40
2019-01-23T16:42:11.763Z,88.60
2019-01-23T16:44:53.867Z,88.10
2019-01-23T16:47:33.614Z,88.10
2019-01-23T16:50:11.813Z,88.20
2019-01-23T16:52:49.884Z,88.80
2019-01-23T16:55:24.613Z,88.80
2019-01-23T16:58:02.704Z,88.90
2019-01-23T17:00:34.165Z,88.10
2019-01-23T17:03:06.056Z,88.30
2019-01-23T17:05:43.451Z,88.80
2019-01-23T17:08:20.447Z,89.10
2019-01-23T17:10:54.540Z,89.50
2019-01-23T17:13:28.126Z,89.80
2019-01-23T17:16:04.568Z,89.80
2019-01-23T17:18:38.197Z,89.90
2019-01-23T17:21:12.509Z,89.90
2019-01-23T17:23:43.427Z,90.00
2019-01-23T17:26:14.221Z,90.10
2019-01-23T17:28:47.074Z,90.10
2019-01-23T17:31:17.762Z,90.20
2019-01-23T17:33:48.528Z,90.20
2019-01-23T17:36:23.400Z,90.30
2019-01-23T17:39:00.816Z,90.10
2019-01-23T17:41:36.138Z,90.30
2019-01-23T17:44:28.850Z,90.40
2019-01-23T17:47:09.504Z,90.50
2019-01-23T17:49:46.476Z,90.60
2019-01-23T17:52:27.024Z,90.50
2019-01-23T17:55:08.533Z,90.50
2019-01-23T17:57:48.901Z,90.50
2019-01-23T18:00:35.242Z,90.70
2019-01-23T18:04:23.953Z,90.70
2019-01-23T18:07:11.419Z,90.90
2019-01-23T18:10:13.432Z,90.90
2019-01-23T18:12:59.940Z,91.00
2019-01-23T18:15:48.047Z,91.10
2019-01-23T18:18:49.965Z,91.20
2019-01-23T18:21:25.558Z,91.30
2019-01-23T18:23:56.386Z,91.30
2019-01-23T18:26:47.614Z,91.30
2019-01-23T18:29:18.224Z,91.40
2019-01-23T18:32:09.022Z,91.40
2019-01-23T18:35:36.872Z,91.40
2019-01-23T18:39:01.617Z,91.50
2019-01-23T18:42:42.363Z,91.60
2019-01-23T18:46:34.600Z,91.60
2019-01-23T18:49:53.385Z,92.00
2019-01-23T18:52:25.765Z,91.60
2019-01-23T18:55:10.134Z,91.60
2019-01-23T18:57:47.510Z,91.70
2019-01-23T19:00:39.686Z,91.80
2019-01-23T19:03:33.064Z,91.80
2019-01-23T19:06:03.399Z,91.80
2019-01-23T19:11:56.142Z,91.80
2019-01-23T19:14:27.427Z,91.60
2019-01-23T19:16:59.919Z,91.70
2019-01-23T19:19:30.447Z,91.60
2019-01-23T19:22:01.693Z,91.60
2019-01-23T19:24:37.108Z,91.60
2019-01-23T19:27:07.943Z,91.70
2019-01-23T19:29:40.867Z,91.70
2019-01-23T19:34:46.125Z,91.60
2019-01-23T19:37:17.030Z,91.60
2019-01-23T19:39:47.953Z,91.60
2019-01-23T19:42:26.421Z,91.70
2019-01-23T19:44:57.314Z,91.70
2019-01-23T19:47:28.335Z,91.60
2019-01-23T19:49:59.212Z,91.60
2019-01-23T19:52:30.195Z,91.60
2019-01-23T19:55:01.131Z,91.50
2019-01-23T19:57:35.126Z,91.50
2019-01-23T20:00:14.572Z,91.50
2019-01-23T20:02:45.804Z,91.40
2019-01-23T20:05:25.145Z,91.40
2019-01-23T20:07:56.350Z,91.80
2019-01-23T20:10:28.166Z,91.50
2019-01-23T20:12:59.420Z,91.60
2019-01-23T20:15:31.858Z,91.70
2019-01-23T20:18:07.246Z,91.80
2019-01-23T20:20:38.057Z,91.80
2019-01-23T20:23:08.593Z,91.90
2019-01-23T20:25:39.248Z,91.80
2019-01-23T20:28:13.182Z,91.80
2019-01-23T20:30:45.717Z,91.90
2019-01-23T20:33:16.321Z,91.90
2019-01-23T20:35:46.986Z,92.00
2019-01-23T20:38:17.724Z,92.00
2019-01-23T20:40:48.283Z,92.10
2019-01-23T20:43:18.841Z,92.10
2019-01-23T20:45:49.576Z,92.10
2019-01-23T20:48:20.288Z,92.20
2019-01-23T20:50:50.915Z,92.20
2019-01-23T20:53:21.615Z,92.20
2019-01-23T20:55:52.174Z,92.20
2019-01-23T20:58:22.947Z,92.20
2019-01-23T21:00:55.958Z,92.30
2019-01-23T21:03:26.754Z,92.40
2019-01-23T21:05:57.357Z,92.40
2019-01-23T21:08:28.067Z,92.40
2019-01-23T21:10:58.847Z,92.40
2019-01-23T21:13:29.663Z,92.40
2019-01-23T21:16:00.298Z,92.40
2019-01-23T21:18:31.140Z,92.40
2019-01-23T21:21:02.023Z,92.50
2019-01-23T21:23:32.543Z,92.60
2019-01-23T21:26:03.009Z,92.70
2019-01-23T21:28:33.774Z,92.80
2019-01-23T21:31:04.515Z,92.80
2019-01-23T21:33:41.837Z,92.70
2019-01-23T21:36:07.503Z,92.60
2019-01-23T21:38:38.025Z,92.60
2019-01-23T21:41:08.529Z,92.80
2019-01-23T21:43:39.021Z,92.70
2019-01-23T21:46:09.643Z,92.80
2019-01-23T21:48:40.231Z,92.80
2019-01-23T21:51:10.746Z,92.80
2019-01-23T21:53:41.310Z,92.70
2019-01-23T21:56:11.912Z,92.70
2019-01-23T21:58:42.365Z,92.80
2019-01-23T22:01:12.972Z,92.80
2019-01-23T22:03:49.272Z,92.90
2019-01-23T22:06:15.796Z,92.90
2019-01-23T22:08:46.333Z,93.00
2019-01-23T22:11:16.832Z,93.40
2019-01-23T22:13:47.426Z,93.10
2019-01-23T22:16:18.196Z,92.90
2019-01-23T22:18:48.703Z,93.00
2019-01-23T22:21:19.222Z,93.10
2019-01-23T22:23:49.846Z,93.10
2019-01-23T22:26:20.671Z,93.10
2019-01-23T22:28:51.277Z,93.10
2019-01-23T22:31:21.896Z,93.00
2019-01-23T22:33:56.429Z,93.00
2019-01-23T22:36:24.875Z,93.10
2019-01-23T22:38:55.482Z,93.20
2019-01-23T22:41:26.071Z,93.10
2019-01-23T22:43:56.585Z,93.10
2019-01-23T22:46:27.128Z,93.00
2019-01-23T22:48:57.611Z,92.90
2019-01-23T22:51:28.176Z,92.90
2019-01-23T22:53:58.753Z,92.80
2019-01-23T22:56:29.313Z,92.70
2019-01-23T22:58:59.953Z,92.80
2019-01-23T23:01:31.943Z,93.10
2019-01-23T23:04:03.735Z,93.00
2019-01-23T23:06:34.383Z,93.00
2019-01-23T23:09:09.710Z,93.20
2019-01-23T23:11:40.408Z,93.20
2019-01-23T23:14:11.048Z,93.20
2019-01-23T23:16:41.534Z,93.00
2019-01-23T23:19:12.030Z,92.90
2019-01-23T23:21:42.522Z,92.90
2019-01-23T23:24:12.977Z,92.90
2019-01-23T23:26:43.502Z,93.00
2019-01-23T23:29:14.127Z,93.10
2019-01-23T23:31:44.673Z,93.00
2019-01-23T23:34:15.095Z,93.00
2019-01-23T23:36:45.633Z,93.00
2019-01-23T23:39:16.068Z,93.00
2019-01-23T23:41:46.710Z,92.90
2019-01-23T23:44:17.160Z,92.90
2019-01-23T23:46:47.705Z,93.00
2019-01-23T23:49:18.177Z,92.90
2019-01-23T23:51:48.762Z,92.90
2019-01-23T23:54:19.329Z,92.90
2019-01-23T23:56:49.848Z,92.90
2019-01-23T23:59:20.339Z,93.00
